sensor_id;sensor_type;location;lat;lon;timestamp;P1;durP1;ratioP1;P2;durP2;ratioP2
32505;SDS011;18955;51.224;8.482;2022-07-22T00:02:02;0.30;;;0.30;;
32505;SDS011;18955;51.224;8.482;2022-07-22T00:04:28;0.82;;;0.30;;
32505;SDS011;18955;51.224;8.482;2022-07-22T00:06:54;2.53;;;0.20;;
32505;SDS011;18955;51.224;8.482;2022-07-22T00:09:20;0.75;;;0.30;;
32505;SDS011;18955;51.224;8.482;2022-07-22T00:11:47;0.55;;;0.15;;
32505;SDS011;18955;51.224;8.482;2022-07-22T00:14:13;1.25;;;0.55;;
32505;SDS011;18955;51.224;8.482;2022-07-22T00:16:40;0.30;;;0.30;;
32505;SDS011;18955;51.224;8.482;2022-07-22T00:19:06;0.30;;;0.30;;
32505;SDS011;18955;51.224;8.482;2022-07-22T00:21:32;6.03;;;0.43;;
32505;SDS011;18955;51.224;8.482;2022-07-22T00:23:58;2.90;;;0.70;;
32505;SDS011;18955;51.224;8.482;2022-07-22T00:26:25;0.57;;;0.57;;
32505;SDS011;18955;51.224;8.482;2022-07-22T00:28:51;0.60;;;0.60;;
32505;SDS011;18955;51.224;8.482;2022-07-22T00:31:17;2.47;;;0.70;;
32505;SDS011;18955;51.224;8.482;2022-07-22T00:33:43;2.17;;;0.88;;
32505;SDS011;18955;51.224;8.482;2022-07-22T00:36:10;0.60;;;0.60;;
32505;SDS011;18955;51.224;8.482;2022-07-22T00:38:37;0.80;;;0.70;;
32505;SDS011;18955;51.224;8.482;2022-07-22T00:41:04;4.57;;;0.80;;
32505;SDS011;18955;51.224;8.482;2022-07-22T00:44:16;0.80;;;0.80;;
32505;SDS011;18955;51.224;8.482;2022-07-22T00:46:20;0.60;;;0.60;;
32505;SDS011;18955;51.224;8.482;2022-07-22T00:48:46;0.80;;;0.77;;
32505;SDS011;18955;51.224;8.482;2022-07-22T00:51:12;6.93;;;0.75;;
32505;SDS011;18955;51.224;8.482;2022-07-22T00:53:39;0.70;;;0.60;;
32505;SDS011;18955;51.224;8.482;2022-07-22T00:56:05;0.50;;;0.50;;
32505;SDS011;18955;51.224;8.482;2022-07-22T00:58:32;1.00;;;0.57;;
32505;SDS011;18955;51.224;8.482;2022-07-22T01:00:58;0.60;;;0.60;;
32505;SDS011;18955;51.224;8.482;2022-07-22T01:03:24;0.70;;;0.70;;
32505;SDS011;18955;51.224;8.482;2022-07-22T01:05:50;2.30;;;0.40;;
32505;SDS011;18955;51.224;8.482;2022-07-22T01:08:17;0.75;;;0.65;;
32505;SDS011;18955;51.224;8.482;2022-07-22T01:10:43;0.32;;;0.32;;
32505;SDS011;18955;51.224;8.482;2022-07-22T01:13:09;0.80;;;0.55;;
32505;SDS011;18955;51.224;8.482;2022-07-22T01:15:36;2.65;;;0.80;;
32505;SDS011;18955;51.224;8.482;2022-07-22T01:18:02;1.17;;;0.85;;
32505;SDS011;18955;51.224;8.482;2022-07-22T01:20:29;0.88;;;0.88;;
32505;SDS011;18955;51.224;8.482;2022-07-22T01:22:57;0.90;;;0.90;;
32505;SDS011;18955;51.224;8.482;2022-07-22T01:25:23;1.08;;;0.90;;
32505;SDS011;18955;51.224;8.482;2022-07-22T01:27:49;1.23;;;0.90;;
32505;SDS011;18955;51.224;8.482;2022-07-22T01:30:16;0.70;;;0.70;;
32505;SDS011;18955;51.224;8.482;2022-07-22T01:35:08;1.10;;;1.08;;
32505;SDS011;18955;51.224;8.482;2022-07-22T01:37:35;1.17;;;1.10;;
32505;SDS011;18955;51.224;8.482;2022-07-22T01:40:02;1.10;;;0.90;;
32505;SDS011;18955;51.224;8.482;2022-07-22T01:42:29;2.67;;;1.20;;
32505;SDS011;18955;51.224;8.482;2022-07-22T01:44:56;1.58;;;0.75;;
32505;SDS011;18955;51.224;8.482;2022-07-22T01:47:22;1.33;;;1.02;;
32505;SDS011;18955;51.224;8.482;2022-07-22T01:49:48;5.05;;;1.17;;
32505;SDS011;18955;51.224;8.482;2022-07-22T01:52:14;2.88;;;1.50;;
32505;SDS011;18955;51.224;8.482;2022-07-22T01:54:43;2.95;;;1.75;;
32505;SDS011;18955;51.224;8.482;2022-07-22T01:57:10;2.03;;;1.92;;
32505;SDS011;18955;51.224;8.482;2022-07-22T01:59:42;1.90;;;1.45;;
32505;SDS011;18955;51.224;8.482;2022-07-22T02:02:10;4.38;;;2.05;;
32505;SDS011;18955;51.224;8.482;2022-07-22T02:04:36;3.13;;;1.65;;
32505;SDS011;18955;51.224;8.482;2022-07-22T02:07:02;2.72;;;1.95;;
32505;SDS011;18955;51.224;8.482;2022-07-22T02:09:29;4.82;;;3.20;;
32505;SDS011;18955;51.224;8.482;2022-07-22T02:11:57;2.88;;;1.98;;
32505;SDS011;18955;51.224;8.482;2022-07-22T02:14:23;2.60;;;2.20;;
32505;SDS011;18955;51.224;8.482;2022-07-22T02:16:50;2.65;;;2.45;;
32505;SDS011;18955;51.224;8.482;2022-07-22T02:21:44;3.10;;;2.80;;
32505;SDS011;18955;51.224;8.482;2022-07-22T02:24:10;5.50;;;3.33;;
32505;SDS011;18955;51.224;8.482;2022-07-22T02:26:37;5.57;;;3.08;;
32505;SDS011;18955;51.224;8.482;2022-07-22T02:29:03;3.15;;;2.85;;
32505;SDS011;18955;51.224;8.482;2022-07-22T02:31:30;6.03;;;3.17;;
32505;SDS011;18955;51.224;8.482;2022-07-22T02:38:51;3.88;;;2.80;;
32505;SDS011;18955;51.224;8.482;2022-07-22T02:41:18;1.63;;;1.52;;
32505;SDS011;18955;51.224;8.482;2022-07-22T02:43:50;2.45;;;2.25;;
32505;SDS011;18955;51.224;8.482;2022-07-22T02:46:20;3.67;;;2.00;;
32505;SDS011;18955;51.224;8.482;2022-07-22T02:48:48;2.92;;;2.10;;
32505;SDS011;18955;51.224;8.482;2022-07-22T02:51:17;2.60;;;2.35;;
32505;SDS011;18955;51.224;8.482;2022-07-22T02:53:44;2.25;;;2.05;;
32505;SDS011;18955;51.224;8.482;2022-07-22T02:56:10;3.33;;;2.97;;
32505;SDS011;18955;51.224;8.482;2022-07-22T02:58:37;4.30;;;2.75;;
32505;SDS011;18955;51.224;8.482;2022-07-22T03:01:03;7.13;;;3.58;;
32505;SDS011;18955;51.224;8.482;2022-07-22T03:03:35;4.97;;;3.70;;
32505;SDS011;18955;51.224;8.482;2022-07-22T03:06:01;5.05;;;2.95;;
32505;SDS011;18955;51.224;8.482;2022-07-22T03:08:37;5.07;;;3.30;;
32505;SDS011;18955;51.224;8.482;2022-07-22T03:11:04;3.53;;;3.22;;
32505;SDS011;18955;51.224;8.482;2022-07-22T03:15:57;4.03;;;3.63;;
32505;SDS011;18955;51.224;8.482;2022-07-22T03:18:24;3.25;;;2.90;;
32505;SDS011;18955;51.224;8.482;2022-07-22T03:20:50;4.95;;;3.28;;
32505;SDS011;18955;51.224;8.482;2022-07-22T03:23:16;3.42;;;3.13;;
32505;SDS011;18955;51.224;8.482;2022-07-22T03:25:42;8.60;;;3.45;;
32505;SDS011;18955;51.224;8.482;2022-07-22T03:28:09;9.38;;;3.63;;
32505;SDS011;18955;51.224;8.482;2022-07-22T03:30:35;4.35;;;3.95;;
32505;SDS011;18955;51.224;8.482;2022-07-22T03:33:03;5.38;;;4.13;;
32505;SDS011;18955;51.224;8.482;2022-07-22T03:35:33;6.43;;;3.72;;
32505;SDS011;18955;51.224;8.482;2022-07-22T03:38:00;4.50;;;3.67;;
32505;SDS011;18955;51.224;8.482;2022-07-22T03:40:28;4.65;;;4.25;;
32505;SDS011;18955;51.224;8.482;2022-07-22T03:42:55;6.78;;;3.90;;
32505;SDS011;18955;51.224;8.482;2022-07-22T03:45:21;5.95;;;3.92;;
32505;SDS011;18955;51.224;8.482;2022-07-22T03:47:48;5.47;;;4.15;;
32505;SDS011;18955;51.224;8.482;2022-07-22T03:50:14;6.47;;;4.32;;
32505;SDS011;18955;51.224;8.482;2022-07-22T03:52:42;6.03;;;4.55;;
32505;SDS011;18955;51.224;8.482;2022-07-22T03:55:10;6.53;;;3.97;;
32505;SDS011;18955;51.224;8.482;2022-07-22T03:57:37;3.80;;;3.42;;
32505;SDS011;18955;51.224;8.482;2022-07-22T04:00:09;4.32;;;3.72;;
32505;SDS011;18955;51.224;8.482;2022-07-22T04:02:43;3.92;;;3.60;;
32505;SDS011;18955;51.224;8.482;2022-07-22T04:05:15;3.38;;;3.00;;
32505;SDS011;18955;51.224;8.482;2022-07-22T04:07:42;6.68;;;5.20;;
32505;SDS011;18955;51.224;8.482;2022-07-22T04:12:39;5.00;;;4.25;;
32505;SDS011;18955;51.224;8.482;2022-07-22T04:15:14;6.53;;;5.93;;
32505;SDS011;18955;51.224;8.482;2022-07-22T04:17:40;7.50;;;6.15;;
32505;SDS011;18955;51.224;8.482;2022-07-22T04:20:07;7.00;;;5.18;;
32505;SDS011;18955;51.224;8.482;2022-07-22T04:22:52;6.10;;;5.50;;
32505;SDS011;18955;51.224;8.482;2022-07-22T04:25:20;6.40;;;5.55;;
32505;SDS011;18955;51.224;8.482;2022-07-22T04:27:46;6.90;;;4.50;;
32505;SDS011;18955;51.224;8.482;2022-07-22T04:30:13;6.78;;;6.05;;
32505;SDS011;18955;51.224;8.482;2022-07-22T04:32:42;7.43;;;6.15;;
32505;SDS011;18955;51.224;8.482;2022-07-22T04:35:09;8.15;;;7.35;;
32505;SDS011;18955;51.224;8.482;2022-07-22T04:37:38;10.40;;;9.25;;
32505;SDS011;18955;51.224;8.482;2022-07-22T04:42:31;11.15;;;9.95;;
32505;SDS011;18955;51.224;8.482;2022-07-22T04:44:58;14.43;;;9.65;;
32505;SDS011;18955;51.224;8.482;2022-07-22T04:47:24;12.02;;;9.80;;
32505;SDS011;18955;51.224;8.482;2022-07-22T04:49:50;12.30;;;10.15;;
32505;SDS011;18955;51.224;8.482;2022-07-22T04:52:16;13.23;;;10.07;;
32505;SDS011;18955;51.224;8.482;2022-07-22T04:54:47;9.75;;;8.77;;
32505;SDS011;18955;51.224;8.482;2022-07-22T04:57:13;13.70;;;9.32;;
32505;SDS011;18955;51.224;8.482;2022-07-22T04:59:40;10.35;;;9.25;;
32505;SDS011;18955;51.224;8.482;2022-07-22T05:02:07;10.73;;;9.60;;
32505;SDS011;18955;51.224;8.482;2022-07-22T05:04:34;9.23;;;8.32;;
32505;SDS011;18955;51.224;8.482;2022-07-22T05:07:00;11.15;;;9.70;;
32505;SDS011;18955;51.224;8.482;2022-07-22T05:09:28;13.07;;;8.48;;
32505;SDS011;18955;51.224;8.482;2022-07-22T05:14:22;12.02;;;9.30;;
32505;SDS011;18955;51.224;8.482;2022-07-22T05:16:49;11.73;;;8.38;;
32505;SDS011;18955;51.224;8.482;2022-07-22T05:19:15;10.80;;;8.30;;
32505;SDS011;18955;51.224;8.482;2022-07-22T05:21:42;10.43;;;8.23;;
32505;SDS011;18955;51.224;8.482;2022-07-22T05:24:09;9.52;;;7.90;;
32505;SDS011;18955;51.224;8.482;2022-07-22T05:26:35;13.15;;;8.02;;
32505;SDS011;18955;51.224;8.482;2022-07-22T05:29:01;11.98;;;9.75;;
32505;SDS011;18955;51.224;8.482;2022-07-22T05:31:28;13.57;;;8.45;;
32505;SDS011;18955;51.224;8.482;2022-07-22T05:33:55;11.80;;;9.25;;
32505;SDS011;18955;51.224;8.482;2022-07-22T05:36:28;12.70;;;8.32;;
32505;SDS011;18955;51.224;8.482;2022-07-22T05:38:55;10.90;;;8.32;;
32505;SDS011;18955;51.224;8.482;2022-07-22T05:41:22;14.07;;;8.45;;
32505;SDS011;18955;51.224;8.482;2022-07-22T05:43:48;10.13;;;8.00;;
32505;SDS011;18955;51.224;8.482;2022-07-22T05:46:15;11.20;;;8.50;;
32505;SDS011;18955;51.224;8.482;2022-07-22T05:51:11;13.82;;;10.25;;
32505;SDS011;18955;51.224;8.482;2022-07-22T05:53:39;11.77;;;8.60;;
32505;SDS011;18955;51.224;8.482;2022-07-22T05:56:07;11.40;;;9.27;;
32505;SDS011;18955;51.224;8.482;2022-07-22T05:58:35;15.88;;;9.23;;
32505;SDS011;18955;51.224;8.482;2022-07-22T06:01:01;12.02;;;7.78;;
32505;SDS011;18955;51.224;8.482;2022-07-22T06:03:27;16.70;;;9.75;;
32505;SDS011;18955;51.224;8.482;2022-07-22T06:05:54;15.70;;;10.00;;
32505;SDS011;18955;51.224;8.482;2022-07-22T06:08:20;19.55;;;10.60;;
32505;SDS011;18955;51.224;8.482;2022-07-22T06:10:50;12.63;;;8.90;;
32505;SDS011;18955;51.224;8.482;2022-07-22T06:13:17;12.70;;;8.80;;
32505;SDS011;18955;51.224;8.482;2022-07-22T06:15:43;15.02;;;9.50;;
32505;SDS011;18955;51.224;8.482;2022-07-22T06:18:11;9.82;;;8.00;;
32505;SDS011;18955;51.224;8.482;2022-07-22T06:23:03;8.85;;;7.57;;
32505;SDS011;18955;51.224;8.482;2022-07-22T06:25:31;8.32;;;7.43;;
32505;SDS011;18955;51.224;8.482;2022-07-22T06:27:58;7.53;;;5.82;;
32505;SDS011;18955;51.224;8.482;2022-07-22T06:30:24;10.82;;;8.13;;
32505;SDS011;18955;51.224;8.482;2022-07-22T06:32:52;11.63;;;7.57;;
32505;SDS011;18955;51.224;8.482;2022-07-22T06:35:18;7.82;;;5.95;;
32505;SDS011;18955;51.224;8.482;2022-07-22T06:37:44;9.10;;;6.40;;
32505;SDS011;18955;51.224;8.482;2022-07-22T06:40:11;9.55;;;7.43;;
32505;SDS011;18955;51.224;8.482;2022-07-22T06:42:56;7.38;;;5.30;;
32505;SDS011;18955;51.224;8.482;2022-07-22T06:45:33;8.95;;;6.18;;
32505;SDS011;18955;51.224;8.482;2022-07-22T06:48:09;13.35;;;6.63;;
32505;SDS011;18955;51.224;8.482;2022-07-22T06:50:36;4.65;;;3.70;;
32505;SDS011;18955;51.224;8.482;2022-07-22T06:53:08;15.50;;;7.50;;
32505;SDS011;18955;51.224;8.482;2022-07-22T06:55:36;6.82;;;6.07;;
32505;SDS011;18955;51.224;8.482;2022-07-22T06:58:07;11.70;;;6.05;;
32505;SDS011;18955;51.224;8.482;2022-07-22T07:00:33;5.30;;;4.80;;
32505;SDS011;18955;51.224;8.482;2022-07-22T07:03:19;5.70;;;5.03;;
32505;SDS011;18955;51.224;8.482;2022-07-22T07:05:46;10.07;;;5.55;;
32505;SDS011;18955;51.224;8.482;2022-07-22T07:08:12;8.80;;;6.20;;
32505;SDS011;18955;51.224;8.482;2022-07-22T07:10:39;6.28;;;5.18;;
32505;SDS011;18955;51.224;8.482;2022-07-22T07:13:09;8.65;;;5.80;;
32505;SDS011;18955;51.224;8.482;2022-07-22T07:15:43;8.60;;;5.85;;
32505;SDS011;18955;51.224;8.482;2022-07-22T07:18:10;11.45;;;6.45;;
32505;SDS011;18955;51.224;8.482;2022-07-22T07:23:05;11.30;;;7.25;;
32505;SDS011;18955;51.224;8.482;2022-07-22T07:25:35;9.45;;;7.00;;
32505;SDS011;18955;51.224;8.482;2022-07-22T07:28:01;10.68;;;7.18;;
32505;SDS011;18955;51.224;8.482;2022-07-22T07:30:53;11.45;;;7.90;;
32505;SDS011;18955;51.224;8.482;2022-07-22T07:33:20;10.60;;;7.20;;
32505;SDS011;18955;51.224;8.482;2022-07-22T07:35:47;8.77;;;6.55;;
32505;SDS011;18955;51.224;8.482;2022-07-22T07:38:19;9.95;;;6.38;;
32505;SDS011;18955;51.224;8.482;2022-07-22T07:40:45;9.27;;;7.25;;
32505;SDS011;18955;51.224;8.482;2022-07-22T07:43:12;7.47;;;5.57;;
32505;SDS011;18955;51.224;8.482;2022-07-22T07:45:38;10.07;;;7.15;;
32505;SDS011;18955;51.224;8.482;2022-07-22T07:50:31;9.15;;;6.47;;
32505;SDS011;18955;51.224;8.482;2022-07-22T07:55:25;9.98;;;6.78;;
32505;SDS011;18955;51.224;8.482;2022-07-22T07:57:52;9.85;;;6.43;;
32505;SDS011;18955;51.224;8.482;2022-07-22T08:00:21;10.23;;;6.70;;
32505;SDS011;18955;51.224;8.482;2022-07-22T08:02:49;8.13;;;6.50;;
32505;SDS011;18955;51.224;8.482;2022-07-22T08:05:16;9.93;;;6.85;;
32505;SDS011;18955;51.224;8.482;2022-07-22T08:07:45;8.40;;;6.03;;
32505;SDS011;18955;51.224;8.482;2022-07-22T08:10:11;12.18;;;7.85;;
32505;SDS011;18955;51.224;8.482;2022-07-22T08:12:56;9.30;;;6.25;;
32505;SDS011;18955;51.224;8.482;2022-07-22T08:15:52;10.38;;;7.47;;
32505;SDS011;18955;51.224;8.482;2022-07-22T08:18:22;9.00;;;6.45;;
32505;SDS011;18955;51.224;8.482;2022-07-22T08:20:49;12.20;;;8.25;;
32505;SDS011;18955;51.224;8.482;2022-07-22T08:23:16;11.88;;;7.93;;
32505;SDS011;18955;51.224;8.482;2022-07-22T08:25:45;10.85;;;7.30;;
32505;SDS011;18955;51.224;8.482;2022-07-22T08:28:11;8.52;;;6.38;;
32505;SDS011;18955;51.224;8.482;2022-07-22T08:30:38;11.63;;;7.60;;
32505;SDS011;18955;51.224;8.482;2022-07-22T08:33:06;12.48;;;6.80;;
32505;SDS011;18955;51.224;8.482;2022-07-22T08:35:35;10.00;;;6.47;;
32505;SDS011;18955;51.224;8.482;2022-07-22T08:38:02;8.38;;;6.13;;
32505;SDS011;18955;51.224;8.482;2022-07-22T08:40:28;10.38;;;6.18;;
32505;SDS011;18955;51.224;8.482;2022-07-22T08:42:57;8.75;;;6.65;;
32505;SDS011;18955;51.224;8.482;2022-07-22T08:45:31;9.45;;;6.80;;
32505;SDS011;18955;51.224;8.482;2022-07-22T08:47:58;8.05;;;6.53;;
32505;SDS011;18955;51.224;8.482;2022-07-22T08:50:40;9.10;;;5.90;;
32505;SDS011;18955;51.224;8.482;2022-07-22T08:53:12;8.07;;;5.57;;
32505;SDS011;18955;51.224;8.482;2022-07-22T08:55:41;11.95;;;6.55;;
32505;SDS011;18955;51.224;8.482;2022-07-22T08:58:12;8.10;;;5.55;;
32505;SDS011;18955;51.224;8.482;2022-07-22T09:00:39;9.05;;;7.10;;
32505;SDS011;18955;51.224;8.482;2022-07-22T09:03:19;7.70;;;5.78;;
32505;SDS011;18955;51.224;8.482;2022-07-22T09:05:49;7.63;;;5.60;;
32505;SDS011;18955;51.224;8.482;2022-07-22T09:08:17;6.80;;;4.95;;
32505;SDS011;18955;51.224;8.482;2022-07-22T09:11:19;8.45;;;6.90;;
32505;SDS011;18955;51.224;8.482;2022-07-22T09:14:06;7.18;;;5.60;;
32505;SDS011;18955;51.224;8.482;2022-07-22T09:19:18;9.15;;;6.45;;
32505;SDS011;18955;51.224;8.482;2022-07-22T09:28:13;8.13;;;6.40;;
32505;SDS011;18955;51.224;8.482;2022-07-22T09:31:00;10.18;;;6.90;;
32505;SDS011;18955;51.224;8.482;2022-07-22T09:33:30;10.48;;;6.55;;
32505;SDS011;18955;51.224;8.482;2022-07-22T09:36:16;10.77;;;6.75;;
32505;SDS011;18955;51.224;8.482;2022-07-22T09:38:43;9.75;;;7.22;;
32505;SDS011;18955;51.224;8.482;2022-07-22T09:41:09;10.25;;;7.60;;
32505;SDS011;18955;51.224;8.482;2022-07-22T09:43:36;8.93;;;6.82;;
32505;SDS011;18955;51.224;8.482;2022-07-22T09:46:04;10.40;;;7.00;;
32505;SDS011;18955;51.224;8.482;2022-07-22T09:48:49;8.60;;;6.63;;
32505;SDS011;18955;51.224;8.482;2022-07-22T09:51:30;7.50;;;6.32;;
32505;SDS011;18955;51.224;8.482;2022-07-22T09:54:15;9.43;;;6.32;;
32505;SDS011;18955;51.224;8.482;2022-07-22T09:56:42;10.30;;;6.82;;
32505;SDS011;18955;51.224;8.482;2022-07-22T09:59:10;12.35;;;6.75;;
32505;SDS011;18955;51.224;8.482;2022-07-22T10:01:41;8.77;;;6.65;;
32505;SDS011;18955;51.224;8.482;2022-07-22T10:04:08;8.25;;;6.10;;
32505;SDS011;18955;51.224;8.482;2022-07-22T10:06:38;9.20;;;6.53;;
32505;SDS011;18955;51.224;8.482;2022-07-22T10:09:10;8.48;;;6.28;;
32505;SDS011;18955;51.224;8.482;2022-07-22T10:11:39;12.02;;;7.28;;
32505;SDS011;18955;51.224;8.482;2022-07-22T10:14:14;11.82;;;7.75;;
32505;SDS011;18955;51.224;8.482;2022-07-22T10:16:43;7.25;;;6.43;;
32505;SDS011;18955;51.224;8.482;2022-07-22T10:19:10;8.68;;;6.90;;
32505;SDS011;18955;51.224;8.482;2022-07-22T10:21:37;8.75;;;7.35;;
32505;SDS011;18955;51.224;8.482;2022-07-22T10:27:00;10.00;;;6.55;;
32505;SDS011;18955;51.224;8.482;2022-07-22T10:45:27;12.35;;;7.78;;
32505;SDS011;18955;51.224;8.482;2022-07-22T10:47:56;10.45;;;7.80;;
32505;SDS011;18955;51.224;8.482;2022-07-22T10:53:05;8.75;;;7.65;;
32505;SDS011;18955;51.224;8.482;2022-07-22T10:55:37;12.77;;;9.00;;
32505;SDS011;18955;51.224;8.482;2022-07-22T11:01:01;13.27;;;8.85;;
32505;SDS011;18955;51.224;8.482;2022-07-22T11:03:30;12.38;;;9.02;;
32505;SDS011;18955;51.224;8.482;2022-07-22T11:05:57;12.75;;;8.65;;
32505;SDS011;18955;51.224;8.482;2022-07-22T11:08:42;9.38;;;7.82;;
32505;SDS011;18955;51.224;8.482;2022-07-22T11:11:09;10.63;;;9.02;;
32505;SDS011;18955;51.224;8.482;2022-07-22T11:13:37;8.88;;;7.90;;
32505;SDS011;18955;51.224;8.482;2022-07-22T11:21:21;12.05;;;8.73;;
32505;SDS011;18955;51.224;8.482;2022-07-22T11:23:51;10.43;;;8.32;;
32505;SDS011;18955;51.224;8.482;2022-07-22T11:26:25;13.32;;;9.93;;
32505;SDS011;18955;51.224;8.482;2022-07-22T11:28:57;9.43;;;7.32;;
32505;SDS011;18955;51.224;8.482;2022-07-22T11:33:50;12.77;;;10.18;;
32505;SDS011;18955;51.224;8.482;2022-07-22T11:36:16;12.05;;;10.73;;
32505;SDS011;18955;51.224;8.482;2022-07-22T11:38:43;13.32;;;10.32;;
32505;SDS011;18955;51.224;8.482;2022-07-22T11:41:11;12.13;;;8.98;;
32505;SDS011;18955;51.224;8.482;2022-07-22T11:43:43;16.27;;;9.40;;
32505;SDS011;18955;51.224;8.482;2022-07-22T11:46:15;15.13;;;9.88;;
32505;SDS011;18955;51.224;8.482;2022-07-22T11:48:43;11.68;;;8.48;;
32505;SDS011;18955;51.224;8.482;2022-07-22T11:51:10;12.43;;;10.02;;
32505;SDS011;18955;51.224;8.482;2022-07-22T11:53:38;14.13;;;8.88;;
32505;SDS011;18955;51.224;8.482;2022-07-22T11:56:06;11.40;;;9.20;;
32505;SDS011;18955;51.224;8.482;2022-07-22T11:58:35;12.15;;;10.25;;
32505;SDS011;18955;51.224;8.482;2022-07-22T12:01:01;13.68;;;9.82;;
32505;SDS011;18955;51.224;8.482;2022-07-22T12:03:28;19.30;;;11.73;;
32505;SDS011;18955;51.224;8.482;2022-07-22T12:05:55;13.73;;;11.27;;
32505;SDS011;18955;51.224;8.482;2022-07-22T12:08:21;14.05;;;10.95;;
32505;SDS011;18955;51.224;8.482;2022-07-22T12:10:48;14.25;;;11.50;;
32505;SDS011;18955;51.224;8.482;2022-07-22T12:15:40;14.90;;;12.32;;
32505;SDS011;18955;51.224;8.482;2022-07-22T12:18:23;18.45;;;11.15;;
32505;SDS011;18955;51.224;8.482;2022-07-22T12:20:52;14.77;;;10.77;;
32505;SDS011;18955;51.224;8.482;2022-07-22T12:23:20;16.33;;;10.52;;
32505;SDS011;18955;51.224;8.482;2022-07-22T12:25:58;12.95;;;9.80;;
32505;SDS011;18955;51.224;8.482;2022-07-22T12:28:26;17.05;;;9.77;;
32505;SDS011;18955;51.224;8.482;2022-07-22T12:30:53;11.32;;;9.82;;
32505;SDS011;18955;51.224;8.482;2022-07-22T12:33:21;15.02;;;11.48;;
32505;SDS011;18955;51.224;8.482;2022-07-22T12:38:44;17.00;;;11.70;;
32505;SDS011;18955;51.224;8.482;2022-07-22T12:41:20;14.60;;;10.93;;
32505;SDS011;18955;51.224;8.482;2022-07-22T12:43:51;13.02;;;10.52;;
32505;SDS011;18955;51.224;8.482;2022-07-22T12:48:51;13.25;;;8.18;;
32505;SDS011;18955;51.224;8.482;2022-07-22T12:51:25;12.35;;;10.80;;
32505;SDS011;18955;51.224;8.482;2022-07-22T12:53:51;14.25;;;10.07;;
32505;SDS011;18955;51.224;8.482;2022-07-22T12:56:19;14.43;;;10.77;;
32505;SDS011;18955;51.224;8.482;2022-07-22T12:58:46;15.65;;;11.38;;
32505;SDS011;18955;51.224;8.482;2022-07-22T13:01:12;13.68;;;11.32;;
32505;SDS011;18955;51.224;8.482;2022-07-22T13:03:39;15.18;;;10.88;;
32505;SDS011;18955;51.224;8.482;2022-07-22T13:06:05;12.98;;;11.02;;
32505;SDS011;18955;51.224;8.482;2022-07-22T13:08:32;12.45;;;10.68;;
32505;SDS011;18955;51.224;8.482;2022-07-22T13:10:59;14.50;;;11.48;;
32505;SDS011;18955;51.224;8.482;2022-07-22T13:13:25;13.23;;;11.07;;
32505;SDS011;18955;51.224;8.482;2022-07-22T13:15:51;14.90;;;11.25;;
32505;SDS011;18955;51.224;8.482;2022-07-22T13:18:18;12.70;;;10.48;;
32505;SDS011;18955;51.224;8.482;2022-07-22T13:20:44;12.80;;;10.57;;
32505;SDS011;18955;51.224;8.482;2022-07-22T13:23:10;11.80;;;10.00;;
32505;SDS011;18955;51.224;8.482;2022-07-22T13:25:37;13.50;;;10.55;;
32505;SDS011;18955;51.224;8.482;2022-07-22T13:28:03;16.55;;;10.25;;
32505;SDS011;18955;51.224;8.482;2022-07-22T13:30:30;18.20;;;10.10;;
32505;SDS011;18955;51.224;8.482;2022-07-22T13:32:56;15.43;;;9.40;;
32505;SDS011;18955;51.224;8.482;2022-07-22T13:35:23;15.15;;;9.90;;
32505;SDS011;18955;51.224;8.482;2022-07-22T13:37:49;14.48;;;11.05;;
32505;SDS011;18955;51.224;8.482;2022-07-22T13:40:15;13.13;;;10.25;;
32505;SDS011;18955;51.224;8.482;2022-07-22T13:42:42;13.65;;;10.50;;
32505;SDS011;18955;51.224;8.482;2022-07-22T13:45:08;12.38;;;10.43;;
32505;SDS011;18955;51.224;8.482;2022-07-22T13:47:41;14.48;;;9.82;;
32505;SDS011;18955;51.224;8.482;2022-07-22T13:50:07;15.43;;;10.68;;
32505;SDS011;18955;51.224;8.482;2022-07-22T13:55:00;19.25;;;11.00;;
32505;SDS011;18955;51.224;8.482;2022-07-22T13:57:27;14.40;;;10.50;;
32505;SDS011;18955;51.224;8.482;2022-07-22T13:59:53;14.55;;;9.48;;
32505;SDS011;18955;51.224;8.482;2022-07-22T14:02:19;14.82;;;10.20;;
32505;SDS011;18955;51.224;8.482;2022-07-22T14:04:45;13.77;;;11.90;;
32505;SDS011;18955;51.224;8.482;2022-07-22T14:07:12;13.00;;;11.15;;
32505;SDS011;18955;51.224;8.482;2022-07-22T14:09:38;16.58;;;11.18;;
32505;SDS011;18955;51.224;8.482;2022-07-22T14:12:05;14.90;;;11.60;;
32505;SDS011;18955;51.224;8.482;2022-07-22T14:14:32;12.18;;;10.43;;
32505;SDS011;18955;51.224;8.482;2022-07-22T14:16:58;14.32;;;11.30;;
32505;SDS011;18955;51.224;8.482;2022-07-22T14:19:24;13.73;;;10.43;;
32505;SDS011;18955;51.224;8.482;2022-07-22T14:21:50;13.50;;;10.68;;
32505;SDS011;18955;51.224;8.482;2022-07-22T14:24:16;11.90;;;10.23;;
32505;SDS011;18955;51.224;8.482;2022-07-22T14:26:43;14.85;;;10.65;;
32505;SDS011;18955;51.224;8.482;2022-07-22T14:29:09;13.20;;;10.77;;
32505;SDS011;18955;51.224;8.482;2022-07-22T14:31:35;12.50;;;10.13;;
32505;SDS011;18955;51.224;8.482;2022-07-22T14:34:02;13.70;;;10.43;;
32505;SDS011;18955;51.224;8.482;2022-07-22T14:36:28;14.07;;;9.57;;
32505;SDS011;18955;51.224;8.482;2022-07-22T14:38:54;12.82;;;10.65;;
32505;SDS011;18955;51.224;8.482;2022-07-22T14:41:21;13.52;;;10.15;;
32505;SDS011;18955;51.224;8.482;2022-07-22T14:43:48;14.27;;;10.45;;
32505;SDS011;18955;51.224;8.482;2022-07-22T14:46:14;10.82;;;9.48;;
32505;SDS011;18955;51.224;8.482;2022-07-22T14:48:40;12.98;;;10.63;;
32505;SDS011;18955;51.224;8.482;2022-07-22T14:51:07;14.93;;;10.50;;
32505;SDS011;18955;51.224;8.482;2022-07-22T14:53:33;13.43;;;10.18;;
32505;SDS011;18955;51.224;8.482;2022-07-22T14:56:00;11.68;;;9.88;;
32505;SDS011;18955;51.224;8.482;2022-07-22T14:58:26;12.80;;;10.40;;
32505;SDS011;18955;51.224;8.482;2022-07-22T15:00:52;12.43;;;10.13;;
32505;SDS011;18955;51.224;8.482;2022-07-22T15:03:19;15.50;;;9.52;;
32505;SDS011;18955;51.224;8.482;2022-07-22T15:05:45;13.48;;;10.10;;
32505;SDS011;18955;51.224;8.482;2022-07-22T15:08:12;11.70;;;9.43;;
32505;SDS011;18955;51.224;8.482;2022-07-22T15:10:38;12.98;;;9.27;;
32505;SDS011;18955;51.224;8.482;2022-07-22T15:13:04;11.77;;;9.43;;
32505;SDS011;18955;51.224;8.482;2022-07-22T15:15:30;11.93;;;9.23;;
32505;SDS011;18955;51.224;8.482;2022-07-22T15:17:57;9.82;;;8.65;;
32505;SDS011;18955;51.224;8.482;2022-07-22T15:20:24;12.93;;;9.38;;
32505;SDS011;18955;51.224;8.482;2022-07-22T15:22:51;9.45;;;8.40;;
32505;SDS011;18955;51.224;8.482;2022-07-22T15:25:17;9.90;;;8.10;;
32505;SDS011;18955;51.224;8.482;2022-07-22T15:27:43;8.93;;;8.02;;
32505;SDS011;18955;51.224;8.482;2022-07-22T15:30:10;7.97;;;7.18;;
32505;SDS011;18955;51.224;8.482;2022-07-22T15:32:37;9.25;;;6.90;;
32505;SDS011;18955;51.224;8.482;2022-07-22T15:35:03;6.82;;;6.13;;
32505;SDS011;18955;51.224;8.482;2022-07-22T15:37:31;7.25;;;6.18;;
32505;SDS011;18955;51.224;8.482;2022-07-22T15:39:57;8.88;;;7.10;;
32505;SDS011;18955;51.224;8.482;2022-07-22T15:42:24;8.00;;;6.90;;
32505;SDS011;18955;51.224;8.482;2022-07-22T15:44:50;6.68;;;5.90;;
32505;SDS011;18955;51.224;8.482;2022-07-22T15:47:16;10.05;;;7.50;;
32505;SDS011;18955;51.224;8.482;2022-07-22T15:49:42;10.05;;;8.15;;
32505;SDS011;18955;51.224;8.482;2022-07-22T15:52:08;12.02;;;8.77;;
32505;SDS011;18955;51.224;8.482;2022-07-22T15:54:35;7.10;;;6.43;;
32505;SDS011;18955;51.224;8.482;2022-07-22T15:57:03;11.27;;;8.23;;
32505;SDS011;18955;51.224;8.482;2022-07-22T15:59:47;8.80;;;7.70;;
32505;SDS011;18955;51.224;8.482;2022-07-22T16:02:14;11.32;;;8.05;;
32505;SDS011;18955;51.224;8.482;2022-07-22T16:04:41;11.48;;;8.52;;
32505;SDS011;18955;51.224;8.482;2022-07-22T16:07:07;10.43;;;7.88;;
32505;SDS011;18955;51.224;8.482;2022-07-22T16:09:33;10.38;;;8.10;;